Time,TemperatureF,DewpointF,PressureIn,WindDirection,WindDirectionDegrees,WindSpeedMPH,WindSpeedGustMPH,Humidity,HourlyPrecipIn,Conditions,Clouds,dailyrainin,SoftwareType,DateUTC
2013-06-01 00:00:00,71.5,61.6,29.99,N/A,-737280,0.0,0.0,71,0.00,,,0.00,Wunderground v.1.13,2013-06-01 04:00:00,
2013-06-01 00:10:00,71.5,61.6,29.99,N/A,-737280,0.0,0.0,71,0.00,,,0.00,Wunderground v.1.13,2013-06-01 04:10:00,
2013-06-01 00:20:00,71.5,61.6,29.99,N/A,-737280,0.0,0.0,71,0.00,,,0.00,Wunderground v.1.13,2013-06-01 04:20:00,
2013-06-01 00:30:00,71.5,61.6,29.99,N/A,-737280,0.0,0.0,71,0.00,,,0.00,Wunderground v.1.13,2013-06-01 04:30:00,
2013-06-01 00:40:00,71.5,61.6,29.99,N/A,-737280,0.0,0.0,71,0.00,,,0.00,Wunderground v.1.13,2013-06-01 04:40:00,
2013-06-01 00:50:00,71.0,62.3,30.00,N/A,-737280,0.0,0.0,74,0.00,,,0.00,Wunderground v.1.13,2013-06-01 04:50:00,
2013-06-01 01:00:00,71.0,62.3,30.00,N/A,-737280,0.0,0.0,74,0.00,,,0.00,Wunderground v.1.13,2013-06-01 05:00:00,
2013-06-01 01:10:00,71.0,62.3,30.00,N/A,-737280,0.0,0.0,74,0.00,,,0.00,Wunderground v.1.13,2013-06-01 05:10:00,
2013-06-01 01:20:00,70.7,62.8,30.00,N/A,-737280,0.0,0.0,76,0.00,,,0.00,Wunderground v.1.13,2013-06-01 05:20:00,
2013-06-01 01:30:00,70.7,62.8,30.00,N/A,-737280,0.0,0.0,76,0.00,,,0.00,Wunderground v.1.13,2013-06-01 05:30:00,
2013-06-01 01:40:00,70.7,62.8,30.00,N/A,-737280,0.0,0.0,76,0.00,,,0.00,Wunderground v.1.13,2013-06-01 05:40:00,
2013-06-01 01:50:00,70.5,62.2,30.01,N/A,-737280,0.0,0.0,75,0.00,,,0.00,Wunderground v.1.13,2013-06-01 05:50:00,
2013-06-01 02:00:00,70.5,62.2,30.01,N/A,-737280,0.0,0.0,75,0.00,,,0.00,Wunderground v.1.13,2013-06-01 06:00:00,
2013-06-01 02:10:00,70.5,62.2,30.01,N/A,-737280,0.0,0.0,75,0.00,,,0.00,Wunderground v.1.13,2013-06-01 06:10:00,
2013-06-01 02:20:00,71.0,62.3,30.00,N/A,-737280,0.0,0.0,74,0.00,,,0.00,Wunderground v.1.13,2013-06-01 06:20:00,
2013-06-01 02:30:00,71.0,62.3,30.00,N/A,-737280,0.0,0.0,74,0.00,,,0.00,Wunderground v.1.13,2013-06-01 06:30:00,
2013-06-01 02:40:00,71.0,62.3,30.00,N/A,-737280,0.0,0.0,74,0.00,,,0.00,Wunderground v.1.13,2013-06-01 06:40:00,
2013-06-01 02:50:00,70.8,63.6,30.00,N/A,-737280,0.0,0.0,78,0.00,,,0.00,Wunderground v.1.13,2013-06-01 06:50:00,
2013-06-01 03:00:00,70.8,63.6,30.00,N/A,-737280,0.0,0.0,78,0.00,,,0.00,Wunderground v.1.13,2013-06-01 07:00:00,
2013-06-01 03:10:00,70.8,63.6,30.00,N/A,-737280,0.0,0.0,78,0.00,,,0.00,Wunderground v.1.13,2013-06-01 07:10:00,
2013-06-01 03:20:00,69.8,62.3,29.99,N/A,-737280,0.0,0.0,77,0.00,,,0.00,Wunderground v.1.13,2013-06-01 07:20:00,
2013-06-01 03:30:00,69.8,62.3,29.99,N/A,-737280,0.0,0.0,77,0.00,,,0.00,Wunderground v.1.13,2013-06-01 07:30:00,
2013-06-01 03:40:00,69.8,62.3,29.99,N/A,-737280,0.0,0.0,77,0.00,,,0.00,Wunderground v.1.13,2013-06-01 07:40:00,
2013-06-01 03:50:00,69.2,62.4,29.99,N/A,-737280,0.0,0.0,79,0.00,,,0.00,Wunderground v.1.13,2013-06-01 07:50:00,
2013-06-01 04:00:00,69.2,62.4,29.99,N/A,-737280,0.0,0.0,79,0.00,,,0.00,Wunderground v.1.13,2013-06-01 08:00:00,
2013-06-01 04:10:00,69.2,62.4,29.99,N/A,-737280,0.0,0.0,79,0.00,,,0.00,Wunderground v.1.13,2013-06-01 08:10:00,
2013-06-01 04:20:00,68.7,61.9,29.99,N/A,-737280,0.0,0.0,79,0.00,,,0.00,Wunderground v.1.13,2013-06-01 08:20:00,
2013-06-01 04:30:00,68.7,61.9,29.99,N/A,-737280,0.0,0.0,79,0.00,,,0.00,Wunderground v.1.13,2013-06-01 08:30:00,
2013-06-01 04:40:00,68.7,61.9,29.99,N/A,-737280,0.0,0.0,79,0.00,,,0.00,Wunderground v.1.13,2013-06-01 08:40:00,
2013-06-01 04:50:00,68.2,62.8,29.99,N/A,-737280,0.0,0.0,83,0.00,,,0.00,Wunderground v.1.13,2013-06-01 08:50:00,
2013-06-01 05:00:00,68.2,62.8,29.99,N/A,-737280,0.0,0.0,83,0.00,,,0.00,Wunderground v.1.13,2013-06-01 09:00:00,
2013-06-01 05:10:00,68.2,62.8,29.99,N/A,-737280,0.0,0.0,83,0.00,,,0.00,Wunderground v.1.13,2013-06-01 09:10:00,
2013-06-01 05:20:00,67.8,63.5,29.99,N/A,-737280,0.0,0.0,86,0.00,,,0.00,Wunderground v.1.13,2013-06-01 09:20:00,
2013-06-01 05:30:00,67.8,63.5,29.99,N/A,-737280,0.0,0.0,86,0.00,,,0.00,Wunderground v.1.13,2013-06-01 09:30:00,
2013-06-01 05:40:00,67.8,63.5,29.99,N/A,-737280,0.0,0.0,86,0.00,,,0.00,Wunderground v.1.13,2013-06-01 09:40:00,
2013-06-01 05:50:00,67.2,63.8,29.99,N/A,-737280,0.0,0.0,89,0.00,,,0.00,Wunderground v.1.13,2013-06-01 09:50:00,
2013-06-01 06:00:00,67.2,63.8,29.99,N/A,-737280,0.0,0.0,89,0.00,,,0.00,Wunderground v.1.13,2013-06-01 10:00:00,
2013-06-01 06:10:00,67.2,63.8,29.99,N/A,-737280,0.0,0.0,89,0.00,,,0.00,Wunderground v.1.13,2013-06-01 10:10:00,
2013-06-01 06:20:00,67.0,64.6,30.00,N/A,-737280,0.0,0.0,92,0.00,,,0.00,Wunderground v.1.13,2013-06-01 10:20:00,
2013-06-01 06:30:00,67.0,64.6,30.00,N/A,-737280,0.0,0.0,92,0.00,,,0.00,Wunderground v.1.13,2013-06-01 10:30:00,
2013-06-01 06:40:00,67.0,64.6,30.00,N/A,-737280,0.0,0.0,92,0.00,,,0.00,Wunderground v.1.13,2013-06-01 10:40:00,
2013-06-01 06:50:00,67.3,65.5,29.99,N/A,-737280,0.0,0.0,94,0.00,,,0.00,Wunderground v.1.13,2013-06-01 10:50:00,
2013-06-01 07:00:00,67.3,65.5,29.99,N/A,-737280,0.0,0.0,94,0.00,,,0.00,Wunderground v.1.13,2013-06-01 11:00:00,
2013-06-01 07:10:00,67.3,65.5,29.99,N/A,-737280,0.0,0.0,94,0.00,,,0.00,Wunderground v.1.13,2013-06-01 11:10:00,
2013-06-01 07:20:00,68.0,66.5,30.00,N/A,-737280,0.0,0.0,95,0.00,,,0.00,Wunderground v.1.13,2013-06-01 11:20:00,
2013-06-01 07:30:00,68.0,66.5,30.00,N/A,-737280,0.0,0.0,95,0.00,,,0.00,Wunderground v.1.13,2013-06-01 11:30:00,
2013-06-01 07:40:00,68.0,66.5,30.00,N/A,-737280,0.0,0.0,95,0.00,,,0.00,Wunderground v.1.13,2013-06-01 11:40:00,
2013-06-01 07:50:00,69.0,66.9,29.99,N/A,-737280,0.0,0.0,93,0.00,,,0.00,Wunderground v.1.13,2013-06-01 11:50:00,
2013-06-01 08:00:00,69.0,66.9,29.99,N/A,-737280,0.0,0.0,93,0.00,,,0.00,Wunderground v.1.13,2013-06-01 12:00:00,
2013-06-01 08:10:00,69.0,66.9,29.99,N/A,-737280,0.0,0.0,93,0.00,,,0.00,Wunderground v.1.13,2013-06-01 12:10:00,
2013-06-01 08:20:00,70.7,67.0,30.01,N/A,-737280,0.0,0.0,88,0.00,,,0.00,Wunderground v.1.13,2013-06-01 12:20:00,
2013-06-01 08:30:00,70.7,67.0,30.01,N/A,-737280,0.0,0.0,88,0.00,,,0.00,Wunderground v.1.13,2013-06-01 12:30:00,
2013-06-01 08:40:00,70.7,67.0,30.01,N/A,-737280,0.0,0.0,88,0.00,,,0.00,Wunderground v.1.13,2013-06-01 12:40:00,
2013-06-01 08:50:00,72.9,66.7,30.00,N/A,-737280,0.0,0.0,81,0.00,,,0.00,Wunderground v.1.13,2013-06-01 12:50:00,
2013-06-01 09:00:00,72.9,66.7,30.00,N/A,-737280,0.0,0.0,81,0.00,,,0.00,Wunderground v.1.13,2013-06-01 13:00:00,
2013-06-01 09:10:00,72.9,66.7,30.00,N/A,-737280,0.0,0.0,81,0.00,,,0.00,Wunderground v.1.13,2013-06-01 13:10:00,
2013-06-01 09:20:00,75.3,64.8,29.99,N/A,-737280,0.0,0.0,70,0.00,,,0.00,Wunderground v.1.13,2013-06-01 13:20:00,
2013-06-01 09:30:00,75.3,64.8,29.99,N/A,-737280,0.0,0.0,70,0.00,,,0.00,Wunderground v.1.13,2013-06-01 13:30:00,
2013-06-01 09:40:00,75.3,64.8,29.99,N/A,-737280,0.0,0.0,70,0.00,,,0.00,Wunderground v.1.13,2013-06-01 13:40:00,
2013-06-01 09:50:00,77.8,64.6,29.98,N/A,-737280,0.0,0.0,64,0.00,,,0.00,Wunderground v.1.13,2013-06-01 13:50:00,
2013-06-01 10:00:00,77.8,64.6,29.98,N/A,-737280,0.0,0.0,64,0.00,,,0.00,Wunderground v.1.13,2013-06-01 14:00:00,
2013-06-01 10:10:00,77.8,64.6,29.98,N/A,-737280,0.0,0.0,64,0.00,,,0.00,Wunderground v.1.13,2013-06-01 14:10:00,
2013-06-01 10:20:00,82.1,63.8,29.97,SW,225,0.0,2.0,54,0.00,,,0.00,Wunderground v.1.13,2013-06-01 14:20:00,
2013-06-01 10:30:00,82.1,63.8,29.97,SW,225,0.0,2.0,54,0.00,,,0.00,Wunderground v.1.13,2013-06-01 14:30:00,
2013-06-01 10:40:00,82.1,63.8,29.97,SW,225,0.0,2.0,54,0.00,,,0.00,Wunderground v.1.13,2013-06-01 14:40:00,
2013-06-01 10:50:00,84.6,62.7,29.97,SW,225,0.0,2.0,48,0.00,,,0.00,Wunderground v.1.13,2013-06-01 14:50:00,
2013-06-01 11:00:00,84.6,62.7,29.97,SW,225,0.0,2.0,48,0.00,,,0.00,Wunderground v.1.13,2013-06-01 15:00:00,
2013-06-01 11:10:00,84.6,62.7,29.97,SW,225,0.0,2.0,48,0.00,,,0.00,Wunderground v.1.13,2013-06-01 15:10:00,
2013-06-01 11:20:00,86.0,58.9,29.98,WNW,293,0.0,4.0,40,0.00,,,0.00,Wunderground v.1.13,2013-06-01 15:20:00,
2013-06-01 11:30:00,86.0,58.9,29.98,WNW,293,0.0,4.0,40,0.00,,,0.00,Wunderground v.1.13,2013-06-01 15:30:00,
2013-06-01 11:40:00,86.0,58.9,29.98,WNW,293,0.0,4.0,40,0.00,,,0.00,Wunderground v.1.13,2013-06-01 15:40:00,
2013-06-01 11:50:00,87.3,60.7,29.97,West,270,0.0,2.0,41,0.00,,,0.00,Wunderground v.1.13,2013-06-01 15:50:00,
2013-06-01 12:00:00,87.3,60.7,29.97,West,270,0.0,2.0,41,0.00,,,0.00,Wunderground v.1.13,2013-06-01 16:00:00,
2013-06-01 12:40:00,87.9,63.9,29.97,SSW,206,0.0,0.0,45,0.00,,,0.00,Wunderground v.1.13,2013-06-01 16:40:00,
2013-06-01 12:50:00,88.5,63.1,29.97,SSW,207,0.0,0.0,43,0.00,,,0.00,Wunderground v.1.13,2013-06-01 16:50:00,
2013-06-01 13:00:00,88.1,59.3,29.96,SW,232,0.0,0.0,38,0.00,,,0.00,Wunderground v.1.13,2013-06-01 17:00:00,
2013-06-01 13:10:00,88.1,58.6,29.95,WSW,257,0.0,2.0,37,0.00,,,0.00,Wunderground v.1.13,2013-06-01 17:10:00,
2013-06-01 13:20:00,88.5,58.9,29.95,WNW,296,0.0,2.0,37,0.00,,,0.00,Wunderground v.1.13,2013-06-01 17:20:00,
2013-06-01 13:30:00,88.9,62.2,29.95,NNW,333,0.0,2.0,41,0.00,,,0.00,Wunderground v.1.13,2013-06-01 17:30:00,
2013-06-01 13:40:00,89.2,61.7,29.95,ENE,67,0.0,2.0,40,0.00,,,0.00,Wunderground v.1.13,2013-06-01 17:40:00,
2013-06-01 13:50:00,88.9,60.7,29.95,NW,317,0.0,2.0,39,0.00,,,0.00,Wunderground v.1.13,2013-06-01 17:50:00,
2013-06-01 14:00:00,89.4,63.3,29.95,SW,232,0.0,2.0,42,0.00,,,0.00,Wunderground v.1.13,2013-06-01 18:00:00,
2013-06-01 14:10:00,88.9,61.5,29.94,NW,308,0.0,2.0,40,0.00,,,0.00,Wunderground v.1.13,2013-06-01 18:10:00,
2013-06-01 14:20:00,89.6,58.3,29.94,NW,308,0.0,2.0,35,0.00,,,0.00,Wunderground v.1.13,2013-06-01 18:20:00,
2013-06-01 14:30:00,90.2,60.4,29.93,West,270,0.0,2.0,37,0.00,,,0.00,Wunderground v.1.13,2013-06-01 18:30:00,
2013-06-01 14:40:00,90.9,62.5,29.92,NW,323,0.0,2.0,39,0.00,,,0.00,Wunderground v.1.13,2013-06-01 18:40:00,
2013-06-01 14:50:00,91.1,59.6,29.92,NW,323,0.0,2.0,35,0.00,,,0.00,Wunderground v.1.13,2013-06-01 18:50:00,
2013-06-01 15:00:00,91.5,59.2,29.92,NW,317,0.0,2.0,34,0.00,,,0.00,Wunderground v.1.13,2013-06-01 19:00:00,
2013-06-01 15:10:00,91.7,60.2,29.91,West,270,0.0,2.0,35,0.00,,,0.00,Wunderground v.1.13,2013-06-01 19:10:00,
2013-06-01 15:20:00,91.1,59.6,29.91,NW,313,0.0,2.0,35,0.00,,,0.00,Wunderground v.1.13,2013-06-01 19:20:00,
2013-06-01 15:30:00,90.6,58.4,29.90,NE,34,0.0,2.0,34,0.00,,,0.00,Wunderground v.1.13,2013-06-01 19:30:00,
2013-06-01 15:40:00,90.6,62.3,29.91,NNE,33,0.0,2.0,39,0.00,,,0.00,Wunderground v.1.13,2013-06-01 19:40:00,
2013-06-01 15:50:00,91.1,63.4,29.91,East,101,0.0,2.0,40,0.00,,,0.00,Wunderground v.1.13,2013-06-01 19:50:00,
2013-06-01 16:00:00,91.5,62.3,29.90,NNE,33,0.0,2.0,38,0.00,,,0.00,Wunderground v.1.13,2013-06-01 20:00:00,
2013-06-01 16:10:00,90.4,62.8,29.90,South,188,0.0,2.0,40,0.00,,,0.00,Wunderground v.1.13,2013-06-01 20:10:00,
2013-06-01 16:20:00,90.2,61.9,29.90,NE,53,0.0,2.0,39,0.00,,,0.00,Wunderground v.1.13,2013-06-01 20:20:00,
2013-06-01 16:30:00,90.4,59.8,29.90,East,86,0.0,2.0,36,0.00,,,0.00,Wunderground v.1.13,2013-06-01 20:30:00,
2013-06-01 16:40:00,90.9,61.8,29.89,East,91,0.0,2.0,38,0.00,,,0.00,Wunderground v.1.13,2013-06-01 20:40:00,
2013-06-01 16:50:00,90.4,58.2,29.89,East,91,0.0,2.0,34,0.00,,,0.00,Wunderground v.1.13,2013-06-01 20:50:00,
2013-06-01 17:00:00,90.9,60.3,29.89,East,90,0.0,2.0,36,0.00,,,0.00,Wunderground v.1.13,2013-06-01 21:00:00,
2013-06-01 17:10:00,89.8,57.7,29.89,East,91,0.0,2.0,34,0.00,,,0.00,Wunderground v.1.13,2013-06-01 21:10:00,
2013-06-01 17:20:00,88.7,59.1,29.89,NW,319,0.0,2.0,37,0.00,,,0.00,Wunderground v.1.13,2013-06-01 21:20:00,
2013-06-01 17:30:00,87.1,59.1,29.89,NW,307,0.0,2.0,39,0.00,,,0.00,Wunderground v.1.13,2013-06-01 21:30:00,
2013-06-01 17:40:00,86.0,58.9,29.90,NW,307,0.0,2.0,40,0.00,,,0.00,Wunderground v.1.13,2013-06-01 21:40:00,
2013-06-01 17:50:00,86.2,59.0,29.90,NW,321,0.0,2.0,40,0.00,,,0.00,Wunderground v.1.13,2013-06-01 21:50:00,
2013-06-01 18:00:00,86.6,60.8,29.89,North,5,0.0,2.0,42,0.00,,,0.00,Wunderground v.1.13,2013-06-01 22:00:00,
2013-06-01 18:10:00,85.8,61.4,29.88,WNW,298,0.0,2.0,44,0.00,,,0.00,Wunderground v.1.13,2013-06-01 22:10:00,
2013-06-01 18:20:00,85.4,61.0,29.88,WNW,298,0.0,2.0,44,0.00,,,0.00,Wunderground v.1.13,2013-06-01 22:20:00,
2013-06-01 18:30:00,85.0,61.3,29.88,NW,315,0.0,2.0,45,0.00,,,0.00,Wunderground v.1.13,2013-06-01 22:30:00,
2013-06-01 18:40:00,84.8,61.1,29.88,NW,315,0.0,2.0,45,0.00,,,0.00,Wunderground v.1.13,2013-06-01 22:40:00,
2013-06-01 18:50:00,84.6,61.5,29.88,NW,317,0.0,2.0,46,0.00,,,0.00,Wunderground v.1.13,2013-06-01 22:50:00,
2013-06-01 19:00:00,84.4,61.4,29.88,NW,317,0.0,2.0,46,0.00,,,0.00,Wunderground v.1.13,2013-06-01 23:00:00,
2013-06-01 19:10:00,83.9,61.5,29.88,NNE,17,0.0,2.0,47,0.00,,,0.00,Wunderground v.1.13,2013-06-01 23:10:00,
2013-06-01 19:20:00,83.3,61.6,29.88,NNE,16,0.0,2.0,48,0.00,,,0.00,Wunderground v.1.13,2013-06-01 23:20:00,
2013-06-01 19:30:00,82.7,60.4,29.90,NNE,15,0.0,2.0,47,0.00,,,0.00,Wunderground v.1.13,2013-06-01 23:30:00,
2013-06-01 19:40:00,82.5,60.8,29.89,NNE,15,0.0,0.0,48,0.00,,,0.00,Wunderground v.1.13,2013-06-01 23:40:00,
2013-06-01 19:50:00,82.3,61.2,29.89,NNE,15,0.0,0.0,49,0.00,,,0.00,Wunderground v.1.13,2013-06-01 23:50:00,
2013-06-01 20:00:00,81.9,62.5,29.89,NNW,327,0.0,0.0,52,0.00,,,0.00,Wunderground v.1.13,2013-06-02 00:00:00,
2013-06-01 20:10:00,81.1,62.3,29.90,NNW,327,0.0,1.0,53,0.00,,,0.00,Wunderground v.1.13,2013-06-02 00:10:00,
2013-06-01 20:20:00,80.6,62.4,29.90,NNW,327,0.0,1.0,54,0.00,,,0.00,Wunderground v.1.13,2013-06-02 00:20:00,
2013-06-01 20:30:00,80.0,62.4,29.90,NNW,327,0.0,1.0,55,0.00,,,0.00,Wunderground v.1.13,2013-06-02 00:30:00,
2013-06-01 20:40:00,79.5,61.9,29.90,NNW,327,0.0,1.0,55,0.00,,,0.00,Wunderground v.1.13,2013-06-02 00:40:00,
2013-06-01 20:50:00,79.1,61.5,29.90,NNW,327,0.0,1.0,55,0.00,,,0.00,Wunderground v.1.13,2013-06-02 00:50:00,
2013-06-01 21:20:00,77.6,63.1,29.91,NNW,327,0.0,0.0,61,0.00,,,0.00,Wunderground v.1.13,2013-06-02 01:20:00,
2013-06-01 21:30:00,77.3,63.3,29.91,NNW,327,0.0,0.0,62,0.00,,,0.00,Wunderground v.1.13,2013-06-02 01:30:00,
2013-06-01 21:40:00,77.1,62.6,29.91,NNW,327,0.0,0.0,61,0.00,,,0.00,Wunderground v.1.13,2013-06-02 01:40:00,
2013-06-01 21:50:00,77.1,63.5,29.91,NNW,327,0.0,0.0,63,0.00,,,0.00,Wunderground v.1.13,2013-06-02 01:50:00,
2013-06-01 22:00:00,76.7,64.5,29.93,NNW,327,0.0,0.0,66,0.00,,,0.00,Wunderground v.1.13,2013-06-02 02:00:00,
2013-06-01 22:10:00,76.0,66.3,29.92,NNW,327,0.0,0.0,72,0.00,,,0.00,Wunderground v.1.13,2013-06-02 02:10:00,
2013-06-01 22:20:00,74.5,67.2,29.92,West,273,0.0,0.0,78,0.00,,,0.00,Wunderground v.1.13,2013-06-02 02:20:00,
2013-06-01 22:30:00,72.0,67.2,29.96,SW,227,0.0,0.0,85,0.00,,,0.00,Wunderground v.1.13,2013-06-02 02:30:00,
2013-06-01 22:40:00,70.8,67.1,29.96,SW,215,0.0,0.0,88,0.00,,,0.00,Wunderground v.1.13,2013-06-02 02:40:00,
2013-06-01 22:50:00,70.3,67.5,29.96,SW,215,0.0,0.0,91,0.00,,,0.00,Wunderground v.1.13,2013-06-02 02:50:00,
2013-06-01 23:00:00,70.0,67.6,29.95,SW,216,0.0,0.0,92,0.00,,,0.00,Wunderground v.1.13,2013-06-02 03:00:00,
2013-06-01 23:10:00,69.8,68.0,29.91,SW,216,0.0,0.0,94,0.00,,,0.00,Wunderground v.1.13,2013-06-02 03:10:00,
2013-06-01 23:20:00,69.0,67.8,29.90,N/A,-737280,0.0,0.0,96,0.00,,,0.00,Wunderground v.1.13,2013-06-02 03:20:00,
2013-06-01 23:30:00,69.0,67.8,29.90,N/A,-737280,0.0,0.0,96,0.00,,,0.00,Wunderground v.1.13,2013-06-02 03:30:00,
2013-06-01 23:40:00,69.0,67.8,29.90,N/A,-737280,0.0,0.0,96,0.00,,,0.00,Wunderground v.1.13,2013-06-02 03:40:00,
2013-06-01 23:50:00,68.7,68.1,29.89,N/A,-737280,0.0,0.0,98,0.00,,,0.00,Wunderground v.1.13,2013-06-02 03:50:00,